Monponsett, Massachusetts
Current Conditions -  °F | °C
As of 9:52 AM on Friday 19 Dec 2014 (Local Time) from KPYM Reporting Station
Overcast Overcast  
Wind Chill: 28°   Ceiling: 2900
Heat Index: 35°   Visibility: 10mi
Dew Point: 25°   Wind: 9mph
Humidity: 67%   Direction: 300°WNW
Pressure: 29.95"   Gusts: NA
Location:  42.02°N, 70.85°W
Report Text: KPYM 191452Z AUTO 30008KT 270V340 10SM OVC029 02/M04 A2995 RMK AO2 SLP144 T00171039 52016
Loading
Personal Weather Stations






























Interactive Weather Map New forecast layout! Learn more

10-Day Weather Forecast

Advertisements
Track Severe Weather on mobile